^^
Station Historical Data
 
Daily Summary for February 25, 2018 Units:  English    Metric   Both
« Previous Day
Next Day »
Daily Weekly Monthly Yearly Custom
  Current: High: Low: Average:
Temperature: 38.6 °F TemperatureF °F 38.4 °F 39.2 °F
Dew Point: 37.3 °F DewpointF °F 36.8 °F 37.1 °F
Humidity: 95% Humidity% 89% 90%
Wind Speed: 1.0mph WindSpeedMPHmph 0.0mph 0.8mph
Wind Gust: 7.0mph WindSpeedGustMPHmph - -
WindNE - - ESE
Pressure: 30.15 in PressureIn in 30.12 in -
Precipitation: 0.56 in      
Historical Graphs
 
 
Tabular Data for February 25, 2018
Time Temperature Dew Point Pressure Wind Wind Speed Wind Gust Humidity Rainfall Rate (Hourly) Conditions
TemperatureF °F DewpointF °F PressureIn in Calm     Humidity% HourlyPrecipIn in Conditions
00:10 40.5 °F 38.9 °F 30.23 in Calm     94% 0.00 in BKN
00:20 40.5 °F 38.9 °F 30.23 in Calm     94% 0.00 in BKN
00:30 40.5 °F 38.9 °F 30.22 in Calm     94% 0.00 in BKN
00:40 40.5 °F 38.9 °F 30.22 in Calm     94% 0.00 in BKN
00:50 40.5 °F 38.9 °F 30.22 in Calm   1.0 mph 94% 0.00 in BKN
01:00 40.5 °F 38.6 °F 30.22 in Calm   1.0 mph 93% 0.00 in BKN
01:09 40.5 °F 38.6 °F 30.23 in Calm     93% 0.00 in BKN
01:20 40.6 °F 38.5 °F 30.23 in Calm   2.0 mph 92% 0.00 in BKN
01:30 40.7 °F 38.6 °F 30.22 in Calm   1.0 mph 92% 0.00 in BKN
01:40 40.7 °F 38.3 °F 30.21 in Calm     91% 0.00 in BKN
01:50 40.7 °F 38.0 °F 30.20 in Calm   1.0 mph 90% 0.00 in BKN
02:00 40.8 °F 38.1 °F 30.19 in NNE 1.0 mph 5.0 mph 90% 0.00 in BKN
02:10 40.8 °F 37.8 °F 30.20 in East 1.0 mph 6.0 mph 89% 0.00 in BKN
02:20 40.8 °F 37.8 °F 30.19 in East 1.0 mph 3.0 mph 89% 0.00 in BKN
02:30 40.7 °F 38.0 °F 30.19 in NE 1.0 mph 3.0 mph 90% 0.00 in BKN
02:40 40.7 °F 38.0 °F 30.19 in Calm   2.0 mph 90% 0.00 in BKN
02:50 40.7 °F 37.7 °F 30.19 in Calm   3.0 mph 89% 0.00 in BKN
03:00 40.8 °F 37.8 °F 30.17 in Calm   7.0 mph 89% 0.00 in BKN
03:10 40.8 °F 37.8 °F 30.17 in SE 1.0 mph 6.0 mph 89% 0.00 in BKN
03:20 40.9 °F 37.9 °F 30.16 in ENE 1.0 mph 8.0 mph 89% 0.00 in BKN
03:30 41.1 °F 38.1 °F 30.17 in SE 1.0 mph 9.0 mph 89% 0.00 in BKN
03:39 41.1 °F 38.1 °F 30.17 in NE 1.0 mph 7.0 mph 89% 0.00 in BKN
03:50 41.1 °F 38.4 °F 30.17 in NNE 1.0 mph 4.0 mph 90% 0.02 in RA
04:00 40.9 °F 38.5 °F 30.18 in NW 1.0 mph 6.0 mph 91% 0.02 in RA
04:10 40.8 °F 38.7 °F 30.19 in Calm   2.0 mph 92% 0.04 in RA
04:20 40.7 °F 38.8 °F 30.17 in NE 2.0 mph 13.0 mph 93% 0.05 in RA
04:30 40.7 °F 38.8 °F 30.18 in ENE 1.0 mph 6.0 mph 93% 0.03 in RA
04:40 40.6 °F 38.7 °F 30.18 in NNW 2.0 mph 8.0 mph 93% 0.03 in RA
04:50 40.1 °F 38.2 °F 30.19 in Calm   4.0 mph 93% 0.03 in RA
05:00 39.7 °F 37.8 °F 30.16 in ESE 2.0 mph 10.0 mph 93% 0.05 in RA
05:10 39.2 °F 37.4 °F 30.15 in East 3.0 mph 9.0 mph 93% 0.02 in RA
05:20 38.8 °F 37.0 °F 30.13 in NNE 1.0 mph 12.0 mph 93% 0.01 in RA
05:30 38.6 °F 36.8 °F 30.15 in NE 1.0 mph 16.0 mph 93% 0.02 in RA
05:39 38.4 °F 36.9 °F 30.13 in ENE 2.0 mph 10.0 mph 94% 0.03 in RA
05:50 38.4 °F 36.8 °F 30.12 in SE 2.0 mph 8.0 mph 94% 0.04 in RA
06:00 38.4 °F 36.8 °F 30.14 in NW 2.0 mph 9.0 mph 94% 0.04 in RA
06:10 38.5 °F 36.9 °F 30.16 in NNW 2.0 mph 5.0 mph 94% 0.02 in RA
06:20 38.5 °F 36.9 °F 30.16 in South 2.0 mph 5.0 mph 94% 0.06 in RA
06:30 38.6 °F 37.3 °F 30.16 in Calm   5.0 mph 95% 0.04 in RA
06:40 38.6 °F 37.3 °F 30.15 in NE 1.0 mph 7.0 mph 95% 0.01 in RA
TarryTown NY Weather
Compliments of Weather Underground - 1.25 mb